sensor_id;sensor_type;location;lat;lon;timestamp;pressure;altitude;pressure_sealevel;temperature;humidity
36524;BME280;66329;46.796;9.824;2023-02-12T00:01:07;85918.45;;;23.34;5.25
36524;BME280;66329;46.796;9.824;2023-02-12T00:03:35;85918.79;;;23.78;5.24
36524;BME280;66329;46.796;9.824;2023-02-12T00:06:03;85920.18;;;23.75;5.26
36524;BME280;66329;46.796;9.824;2023-02-12T00:08:31;85917.00;;;23.31;5.25
36524;BME280;66329;46.796;9.824;2023-02-12T00:10:58;85913.81;;;23.77;5.24
36524;BME280;66329;46.796;9.824;2023-02-12T00:13:25;85915.85;;;24.28;5.25
36524;BME280;66329;46.796;9.824;2023-02-12T00:15:52;85915.35;;;23.75;5.21
36524;BME280;66329;46.796;9.824;2023-02-12T00:18:19;85916.59;;;23.33;5.25
36524;BME280;66329;46.796;9.824;2023-02-12T00:20:46;85918.28;;;23.73;5.27
36524;BME280;66329;46.796;9.824;2023-02-12T00:23:14;85919.63;;;23.28;5.30
36524;BME280;66329;46.796;9.824;2023-02-12T00:25:41;85923.33;;;23.65;5.29
36524;BME280;66329;46.796;9.824;2023-02-12T00:28:08;85919.89;;;23.66;5.29
36524;BME280;66329;46.796;9.824;2023-02-12T00:30:35;85917.91;;;23.64;5.30
36524;BME280;66329;46.796;9.824;2023-02-12T00:33:02;85920.67;;;23.65;5.34
36524;BME280;66329;46.796;9.824;2023-02-12T00:35:29;85919.54;;;23.64;5.33
36524;BME280;66329;46.796;9.824;2023-02-12T00:37:57;85917.72;;;23.65;5.30
36524;BME280;66329;46.796;9.824;2023-02-12T00:40:25;85914.34;;;23.24;5.28
36524;BME280;66329;46.796;9.824;2023-02-12T00:42:52;85917.19;;;24.17;5.28
36524;BME280;66329;46.796;9.824;2023-02-12T00:45:19;85919.74;;;23.72;5.26
36524;BME280;66329;46.796;9.824;2023-02-12T00:47:47;85925.74;;;22.79;5.27
36524;BME280;66329;46.796;9.824;2023-02-12T00:50:14;85928.47;;;23.30;5.25
36524;BME280;66329;46.796;9.824;2023-02-12T00:52:41;85928.31;;;24.20;5.23
36524;BME280;66329;46.796;9.824;2023-02-12T00:55:09;85931.46;;;23.71;5.24
36524;BME280;66329;46.796;9.824;2023-02-12T00:57:36;85929.81;;;23.30;5.24
36524;BME280;66329;46.796;9.824;2023-02-12T01:00:04;85928.65;;;23.73;5.23
36524;BME280;66329;46.796;9.824;2023-02-12T01:02:32;85927.80;;;23.73;5.22
36524;BME280;66329;46.796;9.824;2023-02-12T01:05:00;85928.12;;;23.25;5.25
36524;BME280;66329;46.796;9.824;2023-02-12T01:07:27;85928.74;;;23.64;5.24
36524;BME280;66329;46.796;9.824;2023-02-12T01:09:54;85930.13;;;23.66;5.24
36524;BME280;66329;46.796;9.824;2023-02-12T01:12:21;85932.12;;;23.71;5.21
36524;BME280;66329;46.796;9.824;2023-02-12T01:14:49;85933.36;;;23.29;5.20
36524;BME280;66329;46.796;9.824;2023-02-12T01:17:17;85939.56;;;23.71;5.20
36524;BME280;66329;46.796;9.824;2023-02-12T01:19:45;85940.37;;;23.73;5.19
36524;BME280;66329;46.796;9.824;2023-02-12T01:22:13;85944.86;;;23.78;5.20
36524;BME280;66329;46.796;9.824;2023-02-12T01:24:41;85943.87;;;23.38;5.23
36524;BME280;66329;46.796;9.824;2023-02-12T01:27:09;85941.04;;;23.40;5.23
36524;BME280;66329;46.796;9.824;2023-02-12T01:29:36;85940.83;;;23.81;5.24
36524;BME280;66329;46.796;9.824;2023-02-12T01:32:04;85938.36;;;24.31;5.26
36524;BME280;66329;46.796;9.824;2023-02-12T01:34:32;85937.18;;;23.79;5.26
36524;BME280;66329;46.796;9.824;2023-02-12T01:37:00;85939.25;;;23.37;5.25
36524;BME280;66329;46.796;9.824;2023-02-12T01:39:28;85942.16;;;23.73;5.25
36524;BME280;66329;46.796;9.824;2023-02-12T01:41:56;85943.03;;;23.79;5.20
36524;BME280;66329;46.796;9.824;2023-02-12T01:44:28;85945.60;;;23.81;5.19
36524;BME280;66329;46.796;9.824;2023-02-12T01:46:59;85937.03;;;24.28;5.18
36524;BME280;66329;46.796;9.824;2023-02-12T01:49:30;85931.43;;;23.77;5.17
36524;BME280;66329;46.796;9.824;2023-02-12T01:52:04;85931.05;;;23.78;5.15
36524;BME280;66329;46.796;9.824;2023-02-12T01:54:34;85930.83;;;23.38;5.12
36524;BME280;66329;46.796;9.824;2023-02-12T01:57:03;85929.93;;;23.80;5.15
36524;BME280;66329;46.796;9.824;2023-02-12T01:59:32;85929.70;;;23.38;5.13
36524;BME280;66329;46.796;9.824;2023-02-12T02:02:02;85928.08;;;24.27;5.15
36524;BME280;66329;46.796;9.824;2023-02-12T02:04:35;85928.46;;;23.34;5.14
36524;BME280;66329;46.796;9.824;2023-02-12T02:07:06;85930.97;;;23.36;5.14
36524;BME280;66329;46.796;9.824;2023-02-12T02:09:35;85929.21;;;23.79;5.12
36524;BME280;66329;46.796;9.824;2023-02-12T02:12:05;85926.65;;;24.26;5.09
36524;BME280;66329;46.796;9.824;2023-02-12T02:14:34;85925.90;;;23.33;5.08
36524;BME280;66329;46.796;9.824;2023-02-12T02:17:17;85927.03;;;24.23;5.12
36524;BME280;66329;46.796;9.824;2023-02-12T02:20:07;85926.70;;;23.71;5.09
36524;BME280;66329;46.796;9.824;2023-02-12T02:22:49;85922.37;;;23.23;5.09
36524;BME280;66329;46.796;9.824;2023-02-12T02:25:51;85920.51;;;24.14;5.10
36524;BME280;66329;46.796;9.824;2023-02-12T02:28:38;85919.61;;;23.14;5.10
36524;BME280;66329;46.796;9.824;2023-02-12T02:31:15;85918.28;;;23.53;5.09
36524;BME280;66329;46.796;9.824;2023-02-12T02:33:52;85917.01;;;23.57;5.10
36524;BME280;66329;46.796;9.824;2023-02-12T02:36:26;85917.59;;;23.58;5.09
36524;BME280;66329;46.796;9.824;2023-02-12T02:39:01;85918.77;;;23.54;5.10
36524;BME280;66329;46.796;9.824;2023-02-12T02:41:35;85918.63;;;23.15;5.09
36524;BME280;66329;46.796;9.824;2023-02-12T02:44:09;85917.63;;;23.59;5.06
36524;BME280;66329;46.796;9.824;2023-02-12T02:46:44;85920.82;;;23.60;5.07
36524;BME280;66329;46.796;9.824;2023-02-12T02:49:17;85919.01;;;24.13;5.00
36524;BME280;66329;46.796;9.824;2023-02-12T02:51:48;85917.83;;;23.61;5.07
36524;BME280;66329;46.796;9.824;2023-02-12T02:54:20;85916.25;;;23.20;5.07
36524;BME280;66329;46.796;9.824;2023-02-12T02:56:56;85914.38;;;23.71;5.01
36524;BME280;66329;46.796;9.824;2023-02-12T02:59:29;85913.89;;;23.68;5.02
36524;BME280;66329;46.796;9.824;2023-02-12T03:02:00;85913.19;;;24.16;5.03
36524;BME280;66329;46.796;9.824;2023-02-12T03:04:34;85915.07;;;23.25;5.01
36524;BME280;66329;46.796;9.824;2023-02-12T03:07:07;85912.68;;;23.63;5.01
36524;BME280;66329;46.796;9.824;2023-02-12T03:09:39;85915.86;;;23.63;5.01
36524;BME280;66329;46.796;9.824;2023-02-12T03:12:13;85913.04;;;23.68;4.97
36524;BME280;66329;46.796;9.824;2023-02-12T03:14:45;85911.55;;;23.69;4.99
36524;BME280;66329;46.796;9.824;2023-02-12T03:17:17;85912.23;;;24.18;4.97
36524;BME280;66329;46.796;9.824;2023-02-12T03:19:51;85916.58;;;23.70;4.96
36524;BME280;66329;46.796;9.824;2023-02-12T03:22:23;85915.14;;;23.28;4.93
36524;BME280;66329;46.796;9.824;2023-02-12T03:24:56;85914.83;;;23.73;4.94
36524;BME280;66329;46.796;9.824;2023-02-12T03:27:28;85917.89;;;24.21;4.97
36524;BME280;66329;46.796;9.824;2023-02-12T03:29:58;85916.69;;;23.34;4.92
36524;BME280;66329;46.796;9.824;2023-02-12T03:32:29;85914.94;;;24.29;4.89
36524;BME280;66329;46.796;9.824;2023-02-12T03:35:08;85914.68;;;23.75;4.91
36524;BME280;66329;46.796;9.824;2023-02-12T03:37:39;85910.90;;;23.70;4.92
36524;BME280;66329;46.796;9.824;2023-02-12T03:40:14;85911.11;;;23.29;4.91
36524;BME280;66329;46.796;9.824;2023-02-12T03:42:47;85911.39;;;23.68;4.91
36524;BME280;66329;46.796;9.824;2023-02-12T03:45:28;85912.41;;;24.19;4.94
36524;BME280;66329;46.796;9.824;2023-02-12T03:48:02;85916.03;;;23.68;4.90
36524;BME280;66329;46.796;9.824;2023-02-12T03:50:38;85916.71;;;23.24;4.91
36524;BME280;66329;46.796;9.824;2023-02-12T03:53:08;85917.37;;;23.66;4.93
36524;BME280;66329;46.796;9.824;2023-02-12T03:55:39;85908.73;;;23.68;4.93
36524;BME280;66329;46.796;9.824;2023-02-12T03:58:10;85906.50;;;23.69;4.92
36524;BME280;66329;46.796;9.824;2023-02-12T04:00:40;85905.46;;;23.67;4.91
36524;BME280;66329;46.796;9.824;2023-02-12T04:03:07;85903.80;;;23.67;4.94
36524;BME280;66329;46.796;9.824;2023-02-12T04:05:35;85903.12;;;24.16;4.89
36524;BME280;66329;46.796;9.824;2023-02-12T04:08:05;85901.87;;;23.23;4.89
36524;BME280;66329;46.796;9.824;2023-02-12T04:10:39;85903.92;;;23.24;4.88
36524;BME280;66329;46.796;9.824;2023-02-12T04:13:18;85911.76;;;23.63;4.90
36524;BME280;66329;46.796;9.824;2023-02-12T04:16:00;85907.69;;;23.65;4.87
36524;BME280;66329;46.796;9.824;2023-02-12T04:18:40;85903.34;;;23.63;4.88
36524;BME280;66329;46.796;9.824;2023-02-12T04:21:15;85902.53;;;23.19;4.90
36524;BME280;66329;46.796;9.824;2023-02-12T04:23:52;85900.08;;;23.56;4.91
36524;BME280;66329;46.796;9.824;2023-02-12T04:26:30;85899.46;;;23.56;4.91
36524;BME280;66329;46.796;9.824;2023-02-12T04:29:10;85902.57;;;23.15;4.92
36524;BME280;66329;46.796;9.824;2023-02-12T04:31:45;85905.57;;;23.12;4.93
36524;BME280;66329;46.796;9.824;2023-02-12T04:34:22;85907.47;;;23.51;4.92
36524;BME280;66329;46.796;9.824;2023-02-12T04:36:55;85905.20;;;23.52;4.93
36524;BME280;66329;46.796;9.824;2023-02-12T04:39:26;85905.18;;;24.05;4.89
36524;BME280;66329;46.796;9.824;2023-02-12T04:41:57;85904.57;;;23.13;4.89
36524;BME280;66329;46.796;9.824;2023-02-12T04:44:26;85901.11;;;24.08;4.90
36524;BME280;66329;46.796;9.824;2023-02-12T04:46:54;85897.71;;;23.63;4.83
36524;BME280;66329;46.796;9.824;2023-02-12T04:49:22;85897.89;;;23.26;4.90
36524;BME280;66329;46.796;9.824;2023-02-12T04:51:50;85897.58;;;23.25;4.84
36524;BME280;66329;46.796;9.824;2023-02-12T04:54:19;85895.13;;;23.23;4.86
36524;BME280;66329;46.796;9.824;2023-02-12T04:56:47;85896.03;;;23.62;4.83
36524;BME280;66329;46.796;9.824;2023-02-12T04:59:15;85898.02;;;24.15;4.83
36524;BME280;66329;46.796;9.824;2023-02-12T05:01:42;85895.42;;;23.67;4.84
36524;BME280;66329;46.796;9.824;2023-02-12T05:04:13;85896.07;;;23.66;4.81
36524;BME280;66329;46.796;9.824;2023-02-12T05:06:42;85898.47;;;23.65;4.83
36524;BME280;66329;46.796;9.824;2023-02-12T05:09:13;85899.33;;;23.66;4.78
36524;BME280;66329;46.796;9.824;2023-02-12T05:11:41;85901.17;;;23.68;4.78
36524;BME280;66329;46.796;9.824;2023-02-12T05:14:09;85902.28;;;23.25;4.80
36524;BME280;66329;46.796;9.824;2023-02-12T05:16:37;85903.72;;;23.70;4.76
36524;BME280;66329;46.796;9.824;2023-02-12T05:19:04;85904.21;;;23.67;4.84
36524;BME280;66329;46.796;9.824;2023-02-12T05:21:31;85902.45;;;23.24;4.80
36524;BME280;66329;46.796;9.824;2023-02-12T05:24:00;85903.71;;;23.65;4.77
36524;BME280;66329;46.796;9.824;2023-02-12T05:26:27;85907.55;;;24.10;4.82
36524;BME280;66329;46.796;9.824;2023-02-12T05:28:54;85908.79;;;23.58;4.81
36524;BME280;66329;46.796;9.824;2023-02-12T05:31:22;85908.44;;;24.11;4.81
36524;BME280;66329;46.796;9.824;2023-02-12T05:33:49;85906.32;;;23.63;4.79
36524;BME280;66329;46.796;9.824;2023-02-12T05:36:18;85908.45;;;23.23;4.81
36524;BME280;66329;46.796;9.824;2023-02-12T05:38:46;85909.30;;;23.22;4.81
36524;BME280;66329;46.796;9.824;2023-02-12T05:41:15;85910.12;;;24.10;4.82
36524;BME280;66329;46.796;9.824;2023-02-12T05:43:44;85909.16;;;23.62;4.78
36524;BME280;66329;46.796;9.824;2023-02-12T05:46:11;85909.66;;;23.20;4.82
36524;BME280;66329;46.796;9.824;2023-02-12T05:48:39;85910.90;;;23.17;4.82
36524;BME280;66329;46.796;9.824;2023-02-12T05:51:07;85909.47;;;24.08;4.80
36524;BME280;66329;46.796;9.824;2023-02-12T05:53:40;85907.04;;;23.57;4.79
36524;BME280;66329;46.796;9.824;2023-02-12T05:56:10;85906.91;;;23.56;4.79
36524;BME280;66329;46.796;9.824;2023-02-12T05:58:38;85900.42;;;23.57;4.80
36524;BME280;66329;46.796;9.824;2023-02-12T06:01:12;85894.96;;;23.20;4.80
36524;BME280;66329;46.796;9.824;2023-02-12T06:03:40;85890.87;;;23.60;4.78
36524;BME280;66329;46.796;9.824;2023-02-12T06:06:07;85894.17;;;23.58;4.80
36524;BME280;66329;46.796;9.824;2023-02-12T06:08:35;85889.77;;;23.22;4.74
36524;BME280;66329;46.796;9.824;2023-02-12T06:11:05;85891.01;;;23.66;4.78
36524;BME280;66329;46.796;9.824;2023-02-12T06:13:33;85896.36;;;23.63;4.78
36524;BME280;66329;46.796;9.824;2023-02-12T06:16:00;85898.63;;;23.64;4.77
36524;BME280;66329;46.796;9.824;2023-02-12T06:18:28;85896.20;;;23.19;4.80
36524;BME280;66329;46.796;9.824;2023-02-12T06:20:56;85896.35;;;24.12;4.82
36524;BME280;66329;46.796;9.824;2023-02-12T06:23:24;85899.06;;;23.22;4.85
36524;BME280;66329;46.796;9.824;2023-02-12T06:25:55;85901.54;;;23.63;4.86
36524;BME280;66329;46.796;9.824;2023-02-12T06:28:22;85904.81;;;23.21;4.88
36524;BME280;66329;46.796;9.824;2023-02-12T06:30:50;85905.96;;;24.15;4.86
36524;BME280;66329;46.796;9.824;2023-02-12T06:33:17;85904.13;;;23.29;4.82
36524;BME280;66329;46.796;9.824;2023-02-12T06:35:44;85902.79;;;23.70;4.81
36524;BME280;66329;46.796;9.824;2023-02-12T06:38:12;85906.21;;;23.68;4.80
36524;BME280;66329;46.796;9.824;2023-02-12T06:40:39;85909.84;;;24.18;4.78
36524;BME280;66329;46.796;9.824;2023-02-12T06:43:06;85912.72;;;23.67;4.82
36524;BME280;66329;46.796;9.824;2023-02-12T06:45:34;85911.97;;;23.66;4.85
36524;BME280;66329;46.796;9.824;2023-02-12T06:48:02;85914.97;;;23.25;4.88
36524;BME280;66329;46.796;9.824;2023-02-12T06:50:29;85918.10;;;24.17;4.88
36524;BME280;66329;46.796;9.824;2023-02-12T06:52:57;85918.17;;;23.65;4.85
36524;BME280;66329;46.796;9.824;2023-02-12T06:55:25;85921.11;;;23.64;4.85
36524;BME280;66329;46.796;9.824;2023-02-12T06:57:52;85919.92;;;23.64;4.85
36524;BME280;66329;46.796;9.824;2023-02-12T07:00:21;85918.28;;;23.59;4.84
36524;BME280;66329;46.796;9.824;2023-02-12T07:02:52;85920.82;;;23.59;4.84
36524;BME280;66329;46.796;9.824;2023-02-12T07:05:19;85923.78;;;23.55;4.85
36524;BME280;66329;46.796;9.824;2023-02-12T07:07:47;85926.07;;;23.18;4.84
36524;BME280;66329;46.796;9.824;2023-02-12T07:10:14;85924.13;;;23.63;4.82
36524;BME280;66329;46.796;9.824;2023-02-12T07:12:41;85919.59;;;23.17;4.82
36524;BME280;66329;46.796;9.824;2023-02-12T07:15:10;85921.22;;;23.58;4.84
36524;BME280;66329;46.796;9.824;2023-02-12T07:17:37;85917.33;;;23.61;4.83
36524;BME280;66329;46.796;9.824;2023-02-12T07:20:05;85915.49;;;23.61;4.86
36524;BME280;66329;46.796;9.824;2023-02-12T07:22:34;85915.48;;;24.09;4.85
36524;BME280;66329;46.796;9.824;2023-02-12T07:25:02;85917.05;;;24.10;4.85
36524;BME280;66329;46.796;9.824;2023-02-12T07:27:29;85920.46;;;23.54;4.86
36524;BME280;66329;46.796;9.824;2023-02-12T07:29:56;85916.66;;;23.54;4.89
36524;BME280;66329;46.796;9.824;2023-02-12T07:32:23;85915.78;;;23.55;4.86
36524;BME280;66329;46.796;9.824;2023-02-12T07:34:50;85914.43;;;23.57;4.86
36524;BME280;66329;46.796;9.824;2023-02-12T07:37:17;85915.42;;;23.58;4.80
36524;BME280;66329;46.796;9.824;2023-02-12T07:39:45;85916.96;;;23.17;4.85
36524;BME280;66329;46.796;9.824;2023-02-12T07:42:12;85915.01;;;23.50;4.87
36524;BME280;66329;46.796;9.824;2023-02-12T07:44:39;85910.97;;;23.53;4.84
36524;BME280;66329;46.796;9.824;2023-02-12T07:47:06;85911.68;;;23.12;4.84
36524;BME280;66329;46.796;9.824;2023-02-12T07:49:33;85908.00;;;24.46;4.83
36524;BME280;66329;46.796;9.824;2023-02-12T07:52:00;85906.48;;;23.12;4.84
36524;BME280;66329;46.796;9.824;2023-02-12T07:54:27;85904.02;;;23.11;4.81
36524;BME280;66329;46.796;9.824;2023-02-12T07:56:55;85903.57;;;23.55;4.83
36524;BME280;66329;46.796;9.824;2023-02-12T07:59:22;85901.24;;;23.57;4.80
36524;BME280;66329;46.796;9.824;2023-02-12T08:01:50;85896.41;;;23.15;4.82
36524;BME280;66329;46.796;9.824;2023-02-12T08:04:20;85894.07;;;23.60;4.80
36524;BME280;66329;46.796;9.824;2023-02-12T08:06:49;85894.34;;;24.06;4.84
36524;BME280;66329;46.796;9.824;2023-02-12T08:09:23;85892.15;;;23.56;4.81
36524;BME280;66329;46.796;9.824;2023-02-12T08:11:52;85890.83;;;23.54;4.83
36524;BME280;66329;46.796;9.824;2023-02-12T08:14:21;85895.65;;;23.54;4.81
36524;BME280;66329;46.796;9.824;2023-02-12T08:16:49;85896.50;;;23.99;4.82
36524;BME280;66329;46.796;9.824;2023-02-12T08:19:18;85899.89;;;23.50;4.82
36524;BME280;66329;46.796;9.824;2023-02-12T08:21:48;85898.73;;;23.48;4.82
36524;BME280;66329;46.796;9.824;2023-02-12T08:24:15;85898.67;;;24.31;4.86
36524;BME280;66329;46.796;9.824;2023-02-12T08:26:42;85894.64;;;23.39;4.87
36524;BME280;66329;46.796;9.824;2023-02-12T08:29:12;85893.66;;;23.43;4.87
36524;BME280;66329;46.796;9.824;2023-02-12T08:31:40;85893.92;;;23.40;4.85
36524;BME280;66329;46.796;9.824;2023-02-12T08:34:16;85895.89;;;23.92;4.80
36524;BME280;66329;46.796;9.824;2023-02-12T08:36:45;85894.36;;;23.90;4.84
36524;BME280;66329;46.796;9.824;2023-02-12T08:39:13;85895.34;;;23.43;4.85
36524;BME280;66329;46.796;9.824;2023-02-12T08:41:41;85892.17;;;23.38;4.86
36524;BME280;66329;46.796;9.824;2023-02-12T08:44:08;85887.60;;;23.86;4.88
36524;BME280;66329;46.796;9.824;2023-02-12T08:46:38;85886.09;;;23.38;4.92
36524;BME280;66329;46.796;9.824;2023-02-12T08:49:08;85882.33;;;23.43;4.91
36524;BME280;66329;46.796;9.824;2023-02-12T08:51:38;85879.17;;;23.95;4.95
36524;BME280;66329;46.796;9.824;2023-02-12T08:54:09;85880.05;;;23.94;4.96
36524;BME280;66329;46.796;9.824;2023-02-12T08:56:37;85882.38;;;23.45;4.97
36524;BME280;66329;46.796;9.824;2023-02-12T08:59:06;85884.41;;;23.45;4.97
36524;BME280;66329;46.796;9.824;2023-02-12T09:01:36;85884.04;;;23.97;4.94
36524;BME280;66329;46.796;9.824;2023-02-12T09:04:04;85888.50;;;23.95;4.94
36524;BME280;66329;46.796;9.824;2023-02-12T09:06:33;85886.29;;;23.96;4.95
36524;BME280;66329;46.796;9.824;2023-02-12T09:09:01;85887.01;;;23.95;4.93
36524;BME280;66329;46.796;9.824;2023-02-12T09:11:29;85884.56;;;23.95;4.94
36524;BME280;66329;46.796;9.824;2023-02-12T09:13:58;85885.30;;;23.42;4.96
36524;BME280;66329;46.796;9.824;2023-02-12T09:16:27;85882.36;;;23.94;4.96
36524;BME280;66329;46.796;9.824;2023-02-12T09:18:55;85883.27;;;23.94;4.97
36524;BME280;66329;46.796;9.824;2023-02-12T09:21:22;85881.07;;;23.49;4.96
36524;BME280;66329;46.796;9.824;2023-02-12T09:23:50;85879.62;;;24.02;4.94
36524;BME280;66329;46.796;9.824;2023-02-12T09:26:20;85877.14;;;24.03;4.95
36524;BME280;66329;46.796;9.824;2023-02-12T09:28:49;85880.12;;;23.53;4.95
36524;BME280;66329;46.796;9.824;2023-02-12T09:31:18;85883.39;;;24.07;4.95
36524;BME280;66329;46.796;9.824;2023-02-12T09:33:46;85883.58;;;23.14;4.95
36524;BME280;66329;46.796;9.824;2023-02-12T09:36:16;85887.00;;;24.03;4.96
36524;BME280;66329;46.796;9.824;2023-02-12T09:38:43;85887.78;;;23.16;4.95
36524;BME280;66329;46.796;9.824;2023-02-12T09:41:29;85890.06;;;23.63;4.96
36524;BME280;66329;46.796;9.824;2023-02-12T09:44:03;85891.05;;;24.07;4.96
36524;BME280;66329;46.796;9.824;2023-02-12T09:46:37;85892.67;;;23.62;4.97
36524;BME280;66329;46.796;9.824;2023-02-12T09:49:11;85895.74;;;23.65;4.97
36524;BME280;66329;46.796;9.824;2023-02-12T09:51:44;85894.97;;;24.19;4.96
36524;BME280;66329;46.796;9.824;2023-02-12T09:54:17;85895.31;;;23.25;4.97
36524;BME280;66329;46.796;9.824;2023-02-12T09:56:48;85897.20;;;23.25;4.97
36524;BME280;66329;46.796;9.824;2023-02-12T09:59:25;85898.19;;;23.25;4.99
36524;BME280;66329;46.796;9.824;2023-02-12T10:01:56;85892.89;;;23.64;5.01
36524;BME280;66329;46.796;9.824;2023-02-12T10:04:25;85893.49;;;23.60;5.02
36524;BME280;66329;46.796;9.824;2023-02-12T10:07:00;85898.11;;;23.66;5.00
36524;BME280;66329;46.796;9.824;2023-02-12T10:09:44;85897.91;;;23.66;5.01
36524;BME280;66329;46.796;9.824;2023-02-12T10:12:20;85893.46;;;23.60;5.05
36524;BME280;66329;46.796;9.824;2023-02-12T10:15:06;85890.40;;;23.24;5.04
36524;BME280;66329;46.796;9.824;2023-02-12T10:17:41;85892.15;;;23.66;5.04
36524;BME280;66329;46.796;9.824;2023-02-12T10:20:31;85891.40;;;23.70;5.04
36524;BME280;66329;46.796;9.824;2023-02-12T10:23:10;85892.15;;;23.24;5.06
36524;BME280;66329;46.796;9.824;2023-02-12T10:25:46;85892.50;;;23.61;5.08
36524;BME280;66329;46.796;9.824;2023-02-12T10:28:18;85894.15;;;23.61;5.07
36524;BME280;66329;46.796;9.824;2023-02-12T10:30:50;85892.08;;;23.63;5.08
36524;BME280;66329;46.796;9.824;2023-02-12T10:33:24;85890.18;;;24.14;5.08
36524;BME280;66329;46.796;9.824;2023-02-12T10:35:58;85887.51;;;23.67;5.09
36524;BME280;66329;46.796;9.824;2023-02-12T10:38:30;85885.84;;;23.24;5.10
36524;BME280;66329;46.796;9.824;2023-02-12T10:40:59;85881.72;;;23.72;5.08
36524;BME280;66329;46.796;9.824;2023-02-12T10:43:27;85879.87;;;24.26;5.08
36524;BME280;66329;46.796;9.824;2023-02-12T10:45:55;85877.03;;;23.76;5.09
36524;BME280;66329;46.796;9.824;2023-02-12T10:48:25;85874.20;;;23.73;5.12
36524;BME280;66329;46.796;9.824;2023-02-12T10:51:10;85870.74;;;23.72;5.14
36524;BME280;66329;46.796;9.824;2023-02-12T10:53:44;85869.00;;;23.65;5.15
36524;BME280;66329;46.796;9.824;2023-02-12T10:56:15;85862.64;;;24.17;5.15
36524;BME280;66329;46.796;9.824;2023-02-12T10:58:53;85861.25;;;23.70;5.13
36524;BME280;66329;46.796;9.824;2023-02-12T11:01:25;85854.98;;;23.69;5.16
36524;BME280;66329;46.796;9.824;2023-02-12T11:03:54;85851.71;;;23.31;5.16
36524;BME280;66329;46.796;9.824;2023-02-12T11:06:23;85847.97;;;23.30;5.15
36524;BME280;66329;46.796;9.824;2023-02-12T11:08:51;85845.81;;;24.23;5.15
36524;BME280;66329;46.796;9.824;2023-02-12T11:11:21;85842.27;;;23.74;5.17
36524;BME280;66329;46.796;9.824;2023-02-12T11:13:54;85840.34;;;23.32;5.21
36524;BME280;66329;46.796;9.824;2023-02-12T11:16:32;85834.66;;;23.72;5.21
36524;BME280;66329;46.796;9.824;2023-02-12T11:19:02;85830.29;;;23.72;5.23
36524;BME280;66329;46.796;9.824;2023-02-12T11:21:30;85828.57;;;23.71;5.22
36524;BME280;66329;46.796;9.824;2023-02-12T11:24:20;85825.55;;;23.30;5.20
36524;BME280;66329;46.796;9.824;2023-02-12T11:26:48;85823.39;;;23.62;5.25
36524;BME280;66329;46.796;9.824;2023-02-12T11:29:18;85820.38;;;23.65;5.25
36524;BME280;66329;46.796;9.824;2023-02-12T11:31:59;85818.70;;;23.72;5.26
36524;BME280;66329;46.796;9.824;2023-02-12T11:34:27;85818.80;;;23.32;5.25
36524;BME280;66329;46.796;9.824;2023-02-12T11:36:55;85819.86;;;24.34;5.23
36524;BME280;66329;46.796;9.824;2023-02-12T11:39:26;85820.61;;;23.91;5.23
36524;BME280;66329;46.796;9.824;2023-02-12T11:41:55;85820.61;;;23.49;5.24
36524;BME280;66329;46.796;9.824;2023-02-12T11:44:25;85825.36;;;23.55;5.23
36524;BME280;66329;46.796;9.824;2023-02-12T11:46:55;85825.52;;;23.61;5.23
36524;BME280;66329;46.796;9.824;2023-02-12T11:49:27;85821.91;;;24.04;5.23
36524;BME280;66329;46.796;9.824;2023-02-12T11:51:56;85817.47;;;23.64;5.21
36524;BME280;66329;46.796;9.824;2023-02-12T11:54:29;85813.55;;;23.66;5.22
36524;BME280;66329;46.796;9.824;2023-02-12T11:56:57;85811.61;;;23.62;5.24
36524;BME280;66329;46.796;9.824;2023-02-12T11:59:32;85807.11;;;24.06;5.24
36524;BME280;66329;46.796;9.824;2023-02-12T12:02:07;85806.90;;;24.07;5.24
36524;BME280;66329;46.796;9.824;2023-02-12T12:04:41;85803.06;;;23.65;5.23
36524;BME280;66329;46.796;9.824;2023-02-12T12:07:15;85799.93;;;23.66;5.24
36524;BME280;66329;46.796;9.824;2023-02-12T12:09:48;85800.10;;;23.62;5.25
36524;BME280;66329;46.796;9.824;2023-02-12T12:12:21;85798.01;;;23.67;5.24
36524;BME280;66329;46.796;9.824;2023-02-12T12:14:52;85797.42;;;23.68;5.24
36524;BME280;66329;46.796;9.824;2023-02-12T12:17:23;85796.05;;;23.67;5.24
36524;BME280;66329;46.796;9.824;2023-02-12T12:19:57;85795.61;;;24.11;5.25
36524;BME280;66329;46.796;9.824;2023-02-12T12:22:35;85794.81;;;23.71;5.24
36524;BME280;66329;46.796;9.824;2023-02-12T12:25:12;85794.20;;;23.70;5.26
36524;BME280;66329;46.796;9.824;2023-02-12T12:27:53;85791.65;;;24.11;5.26
36524;BME280;66329;46.796;9.824;2023-02-12T12:30:26;85787.50;;;24.57;5.28
36524;BME280;66329;46.796;9.824;2023-02-12T12:33:01;85782.54;;;24.03;5.30
36524;BME280;66329;46.796;9.824;2023-02-12T12:35:38;85776.62;;;23.63;5.30
36524;BME280;66329;46.796;9.824;2023-02-12T12:38:15;85770.85;;;23.61;5.32
36524;BME280;66329;46.796;9.824;2023-02-12T12:40:52;85769.95;;;23.59;5.33
36524;BME280;66329;46.796;9.824;2023-02-12T12:43:32;85763.84;;;23.62;5.33
36524;BME280;66329;46.796;9.824;2023-02-12T12:46:16;85759.82;;;24.57;5.31
36524;BME280;66329;46.796;9.824;2023-02-12T12:48:56;85758.83;;;24.54;5.33
36524;BME280;66329;46.796;9.824;2023-02-12T12:51:36;85760.76;;;23.60;5.35
36524;BME280;66329;46.796;9.824;2023-02-12T12:54:16;85759.32;;;24.08;5.34
36524;BME280;66329;46.796;9.824;2023-02-12T12:56:55;85762.80;;;24.57;5.35
36524;BME280;66329;46.796;9.824;2023-02-12T13:00:07;85761.75;;;23.61;5.37
36524;BME280;66329;46.796;9.824;2023-02-12T13:03:02;85764.29;;;23.51;5.41
36524;BME280;66329;46.796;9.824;2023-02-12T13:05:55;85764.72;;;23.96;5.41
36524;BME280;66329;46.796;9.824;2023-02-12T13:08:35;85767.17;;;23.94;5.42
36524;BME280;66329;46.796;9.824;2023-02-12T13:11:15;85769.91;;;23.61;5.41
36524;BME280;66329;46.796;9.824;2023-02-12T13:13:46;85769.91;;;23.59;5.42
36524;BME280;66329;46.796;9.824;2023-02-12T13:16:20;85769.19;;;23.62;5.42
36524;BME280;66329;46.796;9.824;2023-02-12T13:18:56;85769.39;;;24.07;5.42
36524;BME280;66329;46.796;9.824;2023-02-12T13:21:36;85770.40;;;23.67;5.45
36524;BME280;66329;46.796;9.824;2023-02-12T13:24:14;85767.05;;;24.09;5.46
36524;BME280;66329;46.796;9.824;2023-02-12T13:26:49;85772.24;;;24.05;5.51
36524;BME280;66329;46.796;9.824;2023-02-12T13:29:20;85772.84;;;23.62;5.51
36524;BME280;66329;46.796;9.824;2023-02-12T13:31:52;85772.21;;;24.06;5.52